createdAt,value
2018-12-31T00:02:02.043Z,5.50
2018-12-31T00:04:31.914Z,5.60
2018-12-31T00:07:01.011Z,5.70
2018-12-31T00:09:30.007Z,5.60
2018-12-31T00:11:58.915Z,5.60
2018-12-31T00:14:28.068Z,5.60
2018-12-31T00:16:56.957Z,5.60
2018-12-31T00:19:25.811Z,5.60
2018-12-31T00:21:54.624Z,5.50
2018-12-31T00:24:23.916Z,5.70
2018-12-31T00:26:52.984Z,5.80
2018-12-31T00:29:22.102Z,5.80
2018-12-31T00:31:51.430Z,5.80
2018-12-31T00:34:20.507Z,5.80
2018-12-31T00:36:49.683Z,5.70
2018-12-31T00:39:18.601Z,5.70
2018-12-31T00:41:47.675Z,5.70
2018-12-31T00:44:17.283Z,5.70
2018-12-31T00:46:46.141Z,5.70
2018-12-31T00:49:15.108Z,5.70
2018-12-31T00:51:44.395Z,5.70
2018-12-31T00:54:13.714Z,5.60
2018-12-31T00:56:43.255Z,5.50
2018-12-31T00:59:12.555Z,5.50
2018-12-31T01:01:41.594Z,5.60
2018-12-31T01:04:10.474Z,5.50
2018-12-31T01:06:39.655Z,5.50
2018-12-31T01:09:08.703Z,5.50
2018-12-31T01:11:38.363Z,5.50
2018-12-31T01:14:07.408Z,5.60
2018-12-31T01:16:36.554Z,5.70
2018-12-31T01:19:06.175Z,5.70
2018-12-31T01:21:34.964Z,5.70
2018-12-31T01:24:04.249Z,5.70
2018-12-31T01:26:33.355Z,5.80
2018-12-31T01:29:02.378Z,5.70
2018-12-31T01:31:31.485Z,5.70
2018-12-31T01:34:02.419Z,5.70
2018-12-31T01:36:31.658Z,5.70
2018-12-31T01:39:00.838Z,5.70
2018-12-31T01:41:29.659Z,5.70
2018-12-31T01:43:58.687Z,5.60
2018-12-31T01:46:27.805Z,5.60
2018-12-31T01:48:56.753Z,5.60
2018-12-31T01:51:25.844Z,5.60
2018-12-31T01:53:54.652Z,5.60
2018-12-31T01:56:23.671Z,5.70
2018-12-31T01:58:52.852Z,5.70
2018-12-31T02:01:21.909Z,5.60
2018-12-31T02:03:51.045Z,5.70
2018-12-31T02:06:21.425Z,5.70
2018-12-31T02:08:50.729Z,5.70
2018-12-31T02:11:19.525Z,5.80
2018-12-31T02:13:48.974Z,5.80
2018-12-31T02:16:26.557Z,5.80
2018-12-31T02:18:55.859Z,5.80
2018-12-31T02:21:43.913Z,5.80
2018-12-31T02:24:31.895Z,5.80
2018-12-31T02:27:20.006Z,5.70
2018-12-31T02:30:08.088Z,5.70
2018-12-31T02:32:56.210Z,5.80
2018-12-31T02:35:44.439Z,5.80
2018-12-31T02:38:32.442Z,5.80
2018-12-31T02:41:20.500Z,5.80
2018-12-31T02:47:08.202Z,5.80
2018-12-31T02:49:48.524Z,5.70
2018-12-31T02:52:29.089Z,5.80
2018-12-31T02:55:10.056Z,5.80
2018-12-31T02:57:51.477Z,5.80
2018-12-31T03:00:32.153Z,5.90
2018-12-31T03:03:12.830Z,5.80
2018-12-31T03:05:53.608Z,5.70
2018-12-31T03:08:34.661Z,5.70
2018-12-31T03:11:15.490Z,5.80
2018-12-31T03:13:56.450Z,5.80
2018-12-31T03:19:19.857Z,5.80
2018-12-31T03:22:01.021Z,5.80
2018-12-31T03:24:41.757Z,5.90
2018-12-31T03:27:10.635Z,5.90
2018-12-31T03:29:40.165Z,5.90
2018-12-31T03:32:09.634Z,5.90
2018-12-31T03:34:38.599Z,5.90
2018-12-31T03:37:07.867Z,5.90
2018-12-31T03:39:37.175Z,5.90
2018-12-31T03:42:06.065Z,5.80
2018-12-31T03:44:34.836Z,5.90
2018-12-31T03:47:03.751Z,5.80
2018-12-31T03:49:33.361Z,5.80
2018-12-31T03:52:02.874Z,5.70
2018-12-31T03:54:32.018Z,5.70
2018-12-31T03:57:01.037Z,5.60
2018-12-31T03:59:30.222Z,5.60
2018-12-31T04:01:59.636Z,5.60
2018-12-31T04:04:28.552Z,5.60
2018-12-31T04:06:57.432Z,5.60
2018-12-31T04:09:26.498Z,5.60
2018-12-31T04:11:55.508Z,5.60
2018-12-31T04:14:24.558Z,5.60
2018-12-31T04:16:53.501Z,5.60
2018-12-31T04:19:23.418Z,5.60
2018-12-31T04:21:52.318Z,5.70
2018-12-31T04:24:21.799Z,5.80
2018-12-31T04:26:50.660Z,5.80
2018-12-31T04:29:19.885Z,5.80
2018-12-31T04:31:48.907Z,5.70
2018-12-31T04:34:18.041Z,5.80
2018-12-31T04:36:47.900Z,5.70
2018-12-31T04:39:17.230Z,5.70
2018-12-31T04:41:46.201Z,5.60
2018-12-31T04:44:15.572Z,5.70
2018-12-31T04:46:45.285Z,5.80
2018-12-31T04:49:14.219Z,5.70
2018-12-31T04:51:43.189Z,5.80
2018-12-31T04:54:13.002Z,5.90
2018-12-31T04:56:41.899Z,6.00
2018-12-31T04:59:11.714Z,6.00
2018-12-31T05:01:40.593Z,6.00
2018-12-31T05:04:09.658Z,5.90
2018-12-31T05:06:38.821Z,5.90
2018-12-31T05:09:07.708Z,6.00
2018-12-31T05:11:36.964Z,5.90
2018-12-31T05:14:06.071Z,6.00
2018-12-31T05:16:35.009Z,5.90
2018-12-31T05:19:04.073Z,5.90
2018-12-31T05:21:33.011Z,5.90
2018-12-31T05:24:02.044Z,5.80
2018-12-31T05:26:30.966Z,5.80
2018-12-31T05:29:00.095Z,5.90
2018-12-31T05:31:28.988Z,5.90
2018-12-31T05:33:58.135Z,5.70
2018-12-31T05:36:27.605Z,5.80
2018-12-31T05:38:56.493Z,5.80
2018-12-31T05:41:25.693Z,5.80
2018-12-31T05:43:54.634Z,5.80
2018-12-31T05:46:23.807Z,5.80
2018-12-31T05:48:52.736Z,5.70
2018-12-31T05:51:21.866Z,5.70
2018-12-31T05:53:51.696Z,5.70
2018-12-31T05:56:20.931Z,5.80
2018-12-31T05:58:49.988Z,5.80
2018-12-31T06:01:19.078Z,5.80
2018-12-31T06:03:48.104Z,5.90
2018-12-31T06:06:16.892Z,5.90
2018-12-31T06:08:46.158Z,6.00
2018-12-31T06:11:14.924Z,6.00
2018-12-31T06:13:44.190Z,6.00
2018-12-31T06:16:13.423Z,5.90
2018-12-31T06:18:42.422Z,5.90
2018-12-31T06:21:11.273Z,5.80
2018-12-31T06:23:40.386Z,5.90
2018-12-31T06:26:09.283Z,5.90
2018-12-31T06:28:38.795Z,5.90
2018-12-31T06:31:07.907Z,5.80
2018-12-31T06:33:36.824Z,5.90
2018-12-31T06:36:05.608Z,5.90
2018-12-31T06:38:34.755Z,5.90
2018-12-31T06:41:03.583Z,5.90
2018-12-31T06:43:32.668Z,5.90
2018-12-31T06:46:01.640Z,5.90
2018-12-31T06:48:30.675Z,5.90
2018-12-31T06:50:59.861Z,5.90
2018-12-31T06:53:28.849Z,5.90
2018-12-31T06:55:57.755Z,5.90
2018-12-31T06:58:27.152Z,6.00
2018-12-31T07:00:57.294Z,6.00
2018-12-31T07:03:26.848Z,6.00
2018-12-31T07:05:56.307Z,6.00
2018-12-31T07:08:25.358Z,6.00
2018-12-31T07:10:54.526Z,5.90
2018-12-31T07:13:23.692Z,5.90
2018-12-31T07:15:52.675Z,5.90
2018-12-31T07:18:21.587Z,5.90
2018-12-31T07:20:50.645Z,5.90
2018-12-31T07:23:20.093Z,5.80
2018-12-31T07:25:49.416Z,5.90
2018-12-31T07:28:18.561Z,5.90
2018-12-31T07:30:47.863Z,5.90
2018-12-31T07:33:16.911Z,5.90
2018-12-31T07:35:46.088Z,6.00
2018-12-31T07:38:15.538Z,6.10
2018-12-31T07:40:44.348Z,6.10
2018-12-31T07:43:13.602Z,6.20
2018-12-31T07:45:42.870Z,6.30
2018-12-31T07:48:11.892Z,6.30
2018-12-31T07:50:40.963Z,6.30
2018-12-31T07:53:10.454Z,6.30
2018-12-31T07:55:39.345Z,6.30
2018-12-31T07:58:09.534Z,6.30
2018-12-31T08:00:38.637Z,6.30
2018-12-31T08:03:07.561Z,6.30
2018-12-31T08:05:36.601Z,6.30
2018-12-31T08:08:05.421Z,6.30
2018-12-31T08:10:35.258Z,6.30
2018-12-31T08:13:06.611Z,6.30
2018-12-31T08:15:35.515Z,6.30
2018-12-31T08:18:04.822Z,6.20
2018-12-31T08:20:34.045Z,6.10
2018-12-31T08:23:03.216Z,6.10
2018-12-31T08:25:32.162Z,6.10
2018-12-31T08:28:01.571Z,6.10
2018-12-31T08:30:30.446Z,6.20
2018-12-31T08:32:59.533Z,6.20
2018-12-31T08:35:28.859Z,6.20
2018-12-31T08:37:57.704Z,6.20
2018-12-31T08:40:26.981Z,6.20
2018-12-31T08:42:56.063Z,6.20
2018-12-31T08:45:25.475Z,6.20
2018-12-31T08:47:54.746Z,6.30
2018-12-31T08:50:24.439Z,6.30
2018-12-31T08:52:53.362Z,6.30
2018-12-31T08:55:22.867Z,6.30
2018-12-31T08:57:52.248Z,6.30
2018-12-31T09:00:21.446Z,6.30
2018-12-31T09:02:50.391Z,6.30
2018-12-31T09:05:19.515Z,6.50
2018-12-31T09:07:48.635Z,6.50
2018-12-31T09:10:17.952Z,6.50
2018-12-31T09:12:47.166Z,6.50
2018-12-31T09:15:16.125Z,6.50
2018-12-31T09:17:45.083Z,6.60
2018-12-31T09:20:14.546Z,6.70
2018-12-31T09:22:43.789Z,6.80
2018-12-31T09:25:13.326Z,6.90
2018-12-31T09:27:42.481Z,6.90
2018-12-31T09:30:11.314Z,6.90
2018-12-31T09:32:40.400Z,6.90
2018-12-31T09:35:09.291Z,7.00
2018-12-31T09:37:38.157Z,6.90
2018-12-31T09:40:07.614Z,6.80
2018-12-31T09:42:37.040Z,6.90
2018-12-31T09:45:06.376Z,6.80
2018-12-31T09:47:35.590Z,6.90
2018-12-31T09:50:05.598Z,6.90
2018-12-31T09:52:34.439Z,6.90
2018-12-31T09:55:03.602Z,7.00
2018-12-31T09:57:32.539Z,7.10
2018-12-31T10:00:01.960Z,7.10
2018-12-31T10:02:30.923Z,7.10
2018-12-31T10:04:59.843Z,7.10
2018-12-31T10:07:28.951Z,7.20
2018-12-31T10:09:58.046Z,7.20
2018-12-31T10:12:27.157Z,7.20
2018-12-31T10:14:56.657Z,7.40
2018-12-31T10:17:25.713Z,7.40
2018-12-31T10:19:54.487Z,7.50
2018-12-31T10:22:24.126Z,7.50
2018-12-31T10:24:53.310Z,7.50
2018-12-31T10:27:22.375Z,7.50
2018-12-31T10:29:51.198Z,7.40
2018-12-31T10:32:20.122Z,7.50
2018-12-31T10:34:49.088Z,7.60
2018-12-31T10:37:18.592Z,7.60
2018-12-31T10:39:47.614Z,7.60
2018-12-31T10:42:16.886Z,7.60
2018-12-31T10:44:45.822Z,7.70
2018-12-31T10:47:15.025Z,7.70
2018-12-31T10:49:44.010Z,7.70
2018-12-31T10:52:13.313Z,7.60
2018-12-31T10:54:42.455Z,7.60
2018-12-31T10:57:11.311Z,7.60
2018-12-31T10:59:40.777Z,7.60
2018-12-31T11:02:10.510Z,7.60
2018-12-31T11:04:39.830Z,7.60
2018-12-31T11:07:08.947Z,7.50
2018-12-31T11:09:38.143Z,7.50
2018-12-31T11:12:07.120Z,7.60
2018-12-31T11:14:36.759Z,7.60
2018-12-31T11:17:06.004Z,7.60
2018-12-31T11:19:34.873Z,7.60
2018-12-31T11:22:04.029Z,7.60
2018-12-31T11:24:33.720Z,7.50
2018-12-31T11:27:03.002Z,7.50
2018-12-31T11:29:32.132Z,7.60
2018-12-31T11:32:01.036Z,7.70
2018-12-31T11:34:30.240Z,7.60
2018-12-31T11:36:59.161Z,7.60
2018-12-31T11:39:28.024Z,7.50
2018-12-31T11:41:58.195Z,7.40
2018-12-31T11:44:27.175Z,7.40
2018-12-31T11:46:56.248Z,7.50
2018-12-31T11:49:25.583Z,7.60
2018-12-31T11:51:55.094Z,7.70
2018-12-31T11:54:39.268Z,7.80
2018-12-31T11:57:09.191Z,7.80
2018-12-31T11:59:38.277Z,7.80
2018-12-31T12:02:07.424Z,7.80
2018-12-31T12:04:36.933Z,7.80
2018-12-31T12:07:06.180Z,8.10
2018-12-31T12:09:35.212Z,8.50
2018-12-31T12:12:04.646Z,9.30
2018-12-31T12:14:34.059Z,9.60
2018-12-31T12:17:03.154Z,9.90
2018-12-31T12:19:32.012Z,9.70
2018-12-31T12:22:01.216Z,9.60
2018-12-31T12:24:30.113Z,9.80
2018-12-31T12:26:59.283Z,9.90
2018-12-31T12:29:28.390Z,9.60
2018-12-31T12:31:59.068Z,9.30
2018-12-31T12:34:28.140Z,9.10
2018-12-31T12:36:57.377Z,9.10
2018-12-31T12:39:26.595Z,9.30
2018-12-31T12:41:55.383Z,9.30
2018-12-31T12:44:24.420Z,9.20
2018-12-31T12:46:53.686Z,9.30
2018-12-31T12:49:22.830Z,9.30
2018-12-31T12:51:52.169Z,9.20
2018-12-31T12:54:21.435Z,9.20
2018-12-31T12:56:50.784Z,9.40
2018-12-31T12:59:20.320Z,9.30
2018-12-31T13:01:49.798Z,9.30
2018-12-31T13:04:19.387Z,9.20
2018-12-31T13:06:48.997Z,9.30
2018-12-31T13:09:18.071Z,9.30
2018-12-31T13:11:47.362Z,9.40
2018-12-31T13:14:16.697Z,9.40
2018-12-31T13:16:46.655Z,9.10
2018-12-31T13:19:15.785Z,8.80
2018-12-31T13:21:45.385Z,8.60
2018-12-31T13:24:14.684Z,8.50
2018-12-31T13:26:44.238Z,8.50
2018-12-31T13:29:13.817Z,8.60
2018-12-31T13:31:43.069Z,8.50
2018-12-31T13:34:12.211Z,8.40
2018-12-31T13:36:41.157Z,8.40
2018-12-31T13:39:10.606Z,8.50
2018-12-31T13:41:39.664Z,8.60
2018-12-31T13:44:08.547Z,8.50
2018-12-31T13:46:37.893Z,8.50
2018-12-31T13:49:07.126Z,8.50
2018-12-31T13:51:36.576Z,8.40
2018-12-31T13:54:05.872Z,8.50
2018-12-31T13:56:35.350Z,8.50
2018-12-31T13:59:04.709Z,8.40
2018-12-31T14:01:33.944Z,8.30
2018-12-31T14:04:03.496Z,8.20
2018-12-31T14:06:32.711Z,8.10
2018-12-31T14:09:01.828Z,8.10
2018-12-31T14:11:35.147Z,8.00
2018-12-31T14:14:04.400Z,8.00
2018-12-31T14:16:33.798Z,8.00
2018-12-31T14:19:02.747Z,8.00
2018-12-31T14:21:32.329Z,8.20
2018-12-31T14:24:01.740Z,8.30
2018-12-31T14:26:31.102Z,8.20
2018-12-31T14:29:03.094Z,8.20
2018-12-31T14:31:32.256Z,8.00
2018-12-31T14:34:01.432Z,8.00
2018-12-31T14:36:31.035Z,8.00
2018-12-31T14:39:01.104Z,8.00
2018-12-31T14:41:30.190Z,7.90
2018-12-31T14:43:59.572Z,7.90
2018-12-31T14:46:30.698Z,7.90
2018-12-31T14:49:01.837Z,7.90
2018-12-31T14:51:31.440Z,7.90
2018-12-31T14:54:01.720Z,8.00
2018-12-31T14:56:31.135Z,8.00
2018-12-31T14:59:00.620Z,7.90
2018-12-31T15:01:30.791Z,7.90
2018-12-31T15:04:00.091Z,7.90
2018-12-31T15:06:29.091Z,7.90
2018-12-31T15:08:58.311Z,7.90
2018-12-31T15:11:27.217Z,7.90
2018-12-31T15:13:56.428Z,7.90
2018-12-31T15:16:26.968Z,8.00
2018-12-31T15:18:56.278Z,7.90
2018-12-31T15:21:25.165Z,7.90
2018-12-31T15:23:54.449Z,7.90
2018-12-31T15:26:36.088Z,7.90
2018-12-31T15:29:16.707Z,7.90
2018-12-31T15:31:45.891Z,7.90
2018-12-31T15:34:15.395Z,7.90
2018-12-31T15:36:44.328Z,7.80
2018-12-31T15:39:13.937Z,7.70
2018-12-31T15:41:45.229Z,7.70
2018-12-31T15:44:14.575Z,7.60
2018-12-31T15:46:44.355Z,7.60
2018-12-31T15:49:32.166Z,7.40
2018-12-31T15:52:05.118Z,7.40
2018-12-31T15:54:37.656Z,7.50
2018-12-31T15:57:06.982Z,7.50
2018-12-31T15:59:36.229Z,7.40
2018-12-31T16:02:06.537Z,7.50
2018-12-31T16:04:35.744Z,7.60
2018-12-31T16:07:05.639Z,7.50
2018-12-31T16:09:40.551Z,7.50
2018-12-31T16:12:26.444Z,7.50
2018-12-31T16:15:03.630Z,7.60
2018-12-31T16:17:38.235Z,7.60
2018-12-31T16:20:28.869Z,7.50
2018-12-31T16:23:01.338Z,7.50
2018-12-31T16:25:33.791Z,7.50
2018-12-31T16:28:22.059Z,7.40
2018-12-31T16:31:12.060Z,7.40
2018-12-31T16:34:00.408Z,7.40
2018-12-31T16:36:48.702Z,7.40
2018-12-31T16:39:36.846Z,7.40
2018-12-31T16:42:26.989Z,7.30
2018-12-31T16:45:15.033Z,7.20
2018-12-31T16:48:05.030Z,7.20
2018-12-31T16:50:52.999Z,7.20
2018-12-31T16:53:42.967Z,7.30
2018-12-31T16:56:31.014Z,7.30
2018-12-31T16:59:19.035Z,7.30
2018-12-31T17:02:00.162Z,7.20
2018-12-31T17:04:41.351Z,7.20
2018-12-31T17:07:28.232Z,7.40
2018-12-31T17:10:05.136Z,7.30
2018-12-31T17:12:46.165Z,7.40
2018-12-31T17:15:28.342Z,7.40
2018-12-31T17:18:09.490Z,7.40
2018-12-31T17:20:50.836Z,7.50
2018-12-31T17:23:31.419Z,7.50
2018-12-31T17:26:12.358Z,7.40
2018-12-31T17:28:53.073Z,7.40
2018-12-31T17:31:33.953Z,7.30
2018-12-31T17:34:14.708Z,7.40
2018-12-31T17:36:55.277Z,7.30
2018-12-31T17:39:36.000Z,7.20
2018-12-31T17:42:15.940Z,7.30
2018-12-31T17:48:04.454Z,7.40
2018-12-31T17:50:52.542Z,7.30
2018-12-31T17:53:42.571Z,7.30
2018-12-31T17:59:25.025Z,7.50
2018-12-31T18:02:13.073Z,7.50
2018-12-31T18:05:03.355Z,7.50
2018-12-31T18:07:51.594Z,7.50
2018-12-31T18:10:41.335Z,7.50
2018-12-31T18:16:23.794Z,7.40
2018-12-31T18:19:11.816Z,7.40
2018-12-31T18:22:01.494Z,7.30
2018-12-31T18:24:49.931Z,7.30
2018-12-31T18:27:33.107Z,7.30
2018-12-31T18:30:14.349Z,7.40
2018-12-31T18:32:54.827Z,7.40
2018-12-31T18:35:35.429Z,7.30
2018-12-31T18:38:15.836Z,7.30
2018-12-31T18:40:57.335Z,7.30
2018-12-31T18:43:38.007Z,7.30
2018-12-31T18:46:18.534Z,7.40
2018-12-31T18:48:59.210Z,7.30
2018-12-31T18:51:40.283Z,7.30
2018-12-31T18:54:20.944Z,7.40
2018-12-31T18:57:02.006Z,7.30
2018-12-31T18:59:31.427Z,7.20
2018-12-31T19:02:00.794Z,7.20
2018-12-31T19:04:30.730Z,7.10
2018-12-31T19:06:59.769Z,7.10
2018-12-31T19:09:28.942Z,7.20
2018-12-31T19:11:58.112Z,7.10
2018-12-31T19:14:27.248Z,7.20
2018-12-31T19:16:56.829Z,7.20
2018-12-31T19:19:25.861Z,7.20
2018-12-31T19:21:55.154Z,7.20
2018-12-31T19:24:24.378Z,7.20
2018-12-31T19:26:56.419Z,7.30
2018-12-31T19:29:25.723Z,7.30
2018-12-31T19:31:57.231Z,7.30
2018-12-31T19:34:26.569Z,7.30
2018-12-31T19:36:57.788Z,7.20
2018-12-31T19:39:27.478Z,7.20
2018-12-31T19:42:04.084Z,7.20
2018-12-31T19:44:36.501Z,7.20
2018-12-31T19:47:08.592Z,7.20
2018-12-31T19:49:37.751Z,7.10
2018-12-31T19:52:08.328Z,7.10
2018-12-31T19:54:43.014Z,7.10
2018-12-31T19:57:13.114Z,7.10
2018-12-31T19:59:45.732Z,7.10
2018-12-31T20:02:17.206Z,7.10
2018-12-31T20:04:49.874Z,7.10
2018-12-31T20:07:22.611Z,7.10
2018-12-31T20:09:51.771Z,7.10
2018-12-31T20:12:21.165Z,7.00
2018-12-31T20:14:50.388Z,7.00
2018-12-31T20:17:19.687Z,7.00
2018-12-31T20:19:50.830Z,7.00
2018-12-31T20:22:21.162Z,7.10
2018-12-31T20:24:50.454Z,7.10
2018-12-31T20:27:20.171Z,6.90
2018-12-31T20:29:49.572Z,6.80
2018-12-31T20:32:20.423Z,6.90
2018-12-31T20:34:49.858Z,6.90
2018-12-31T20:37:19.113Z,7.00
2018-12-31T20:40:07.830Z,7.00
2018-12-31T20:42:37.685Z,7.00
2018-12-31T20:45:09.692Z,7.00
2018-12-31T20:47:39.513Z,7.10
2018-12-31T20:50:09.110Z,7.00
2018-12-31T20:52:38.767Z,7.10
2018-12-31T20:55:08.006Z,7.10
2018-12-31T20:57:37.207Z,7.00
2018-12-31T21:00:07.531Z,7.00
2018-12-31T21:02:36.967Z,7.00
2018-12-31T21:05:07.225Z,7.00
2018-12-31T21:07:36.837Z,7.00
2018-12-31T21:10:08.522Z,7.00
2018-12-31T21:12:37.830Z,6.90
2018-12-31T21:15:07.349Z,7.00
2018-12-31T21:17:36.678Z,7.00
2018-12-31T21:20:07.173Z,7.00
2018-12-31T21:22:36.736Z,6.90
2018-12-31T21:25:06.374Z,7.00
2018-12-31T21:27:35.644Z,7.00
2018-12-31T21:30:06.248Z,7.00
2018-12-31T21:32:35.753Z,6.90
2018-12-31T21:35:05.289Z,6.90
2018-12-31T21:37:35.487Z,6.80
2018-12-31T21:40:05.594Z,6.80
2018-12-31T21:42:34.642Z,6.80
2018-12-31T21:45:03.736Z,6.80
2018-12-31T21:47:32.748Z,6.80
2018-12-31T21:50:01.870Z,6.80
2018-12-31T21:52:30.967Z,6.90
2018-12-31T21:55:00.011Z,6.90
2018-12-31T21:57:29.102Z,6.90
2018-12-31T21:59:58.271Z,6.80
2018-12-31T22:02:27.251Z,6.90
2018-12-31T22:04:56.979Z,6.90
2018-12-31T22:07:28.770Z,6.80
2018-12-31T22:09:58.327Z,6.80
2018-12-31T22:12:28.759Z,6.90
2018-12-31T22:14:57.814Z,6.90
2018-12-31T22:17:27.430Z,6.90
2018-12-31T22:19:59.602Z,6.80
2018-12-31T22:22:30.810Z,6.90
2018-12-31T22:25:00.020Z,6.90
2018-12-31T22:27:29.293Z,6.90
2018-12-31T22:29:58.480Z,7.00
2018-12-31T22:32:27.655Z,6.80
2018-12-31T22:34:58.410Z,6.70
2018-12-31T22:37:28.739Z,6.80
2018-12-31T22:39:58.516Z,6.80
2018-12-31T22:42:27.635Z,6.80
2018-12-31T22:44:57.206Z,6.80
2018-12-31T22:47:26.293Z,6.80
2018-12-31T22:49:59.070Z,6.80
2018-12-31T22:52:28.620Z,6.80
2018-12-31T22:54:57.683Z,6.80
2018-12-31T22:57:27.136Z,6.70
2018-12-31T22:59:56.692Z,6.80
2018-12-31T23:02:28.908Z,6.80
2018-12-31T23:04:58.178Z,6.80
2018-12-31T23:07:27.926Z,6.90
2018-12-31T23:09:58.081Z,6.80
2018-12-31T23:12:27.149Z,6.80
2018-12-31T23:14:57.373Z,6.90
2018-12-31T23:17:26.819Z,6.90
2018-12-31T23:19:56.368Z,6.90
2018-12-31T23:22:26.035Z,6.90
2018-12-31T23:24:55.150Z,6.90
2018-12-31T23:27:25.425Z,6.80
2018-12-31T23:29:55.091Z,6.70
2018-12-31T23:32:28.729Z,6.70
2018-12-31T23:34:58.283Z,6.70
2018-12-31T23:37:29.943Z,6.80
2018-12-31T23:40:00.604Z,6.80
2018-12-31T23:42:30.376Z,6.80
2018-12-31T23:44:59.842Z,6.70
2018-12-31T23:47:28.908Z,6.70
2018-12-31T23:49:59.623Z,6.60
2018-12-31T23:52:28.743Z,6.70
2018-12-31T23:54:57.661Z,6.70
2018-12-31T23:57:27.131Z,6.70
2018-12-31T23:59:56.071Z,6.70
